TimeEST,TemperatureF,Dew PointF,Humidity,Sea Level PressureIn,VisibilityMPH,Wind Direction,Wind SpeedMPH,Gust SpeedMPH,PrecipitationIn,Events,Conditions,WindDirDegrees,DateUTC
12:15 AM,42.8,42.8,100,30.38,5.0,Calm,Calm,-,N/A,,Clear,0,2013-01-09 05:15:00
12:35 AM,42.8,42.8,100,30.37,7.0,Calm,Calm,-,N/A,,Clear,0,2013-01-09 05:35:00
12:55 AM,42.8,42.8,100,30.37,5.0,Calm,Calm,-,N/A,,Clear,0,2013-01-09 05:55:00
1:15 AM,42.8,42.8,100,30.36,5.0,Calm,Calm,-,N/A,,Clear,0,2013-01-09 06:15:00
1:35 AM,42.8,42.8,100,30.36,5.0,Calm,Calm,-,N/A,,Scattered Clouds,0,2013-01-09 06:35:00
1:55 AM,42.8,42.8,100,30.36,5.0,Calm,Calm,-,N/A,,Mostly Cloudy,0,2013-01-09 06:55:00
2:15 AM,44.6,44.6,100,30.36,7.0,Calm,Calm,-,N/A,,Overcast,0,2013-01-09 07:15:00
2:35 AM,44.6,44.6,100,30.37,5.0,Calm,Calm,-,N/A,,Overcast,0,2013-01-09 07:35:00
2:55 AM,46.4,46.4,100,30.36,5.0,Calm,Calm,-,N/A,,Overcast,0,2013-01-09 07:55:00
3:15 AM,46.4,46.4,100,30.36,7.0,Calm,Calm,-,N/A,,Overcast,0,2013-01-09 08:15:00
3:35 AM,46.4,46.4,100,30.36,5.0,Calm,Calm,-,N/A,,Overcast,0,2013-01-09 08:35:00
3:55 AM,46.4,46.4,100,30.35,5.0,Calm,Calm,-,N/A,,Overcast,0,2013-01-09 08:55:00
4:15 AM,48.2,48.2,100,30.35,7.0,Calm,Calm,-,N/A,,Overcast,0,2013-01-09 09:15:00
4:35 AM,50.0,50.0,100,30.35,7.0,Calm,Calm,-,N/A,,Overcast,0,2013-01-09 09:35:00
4:55 AM,50.0,50.0,100,30.35,5.0,Calm,Calm,-,N/A,,Mostly Cloudy,0,2013-01-09 09:55:00
5:15 AM,46.4,46.4,100,30.35,5.0,Calm,Calm,-,N/A,,Scattered Clouds,0,2013-01-09 10:15:00
5:35 AM,46.4,46.4,100,30.35,5.0,Calm,Calm,-,N/A,,Scattered Clouds,0,2013-01-09 10:35:00
5:55 AM,48.2,48.2,100,30.36,5.0,Calm,Calm,-,N/A,,Overcast,0,2013-01-09 10:55:00
6:15 AM,48.2,48.2,100,30.36,7.0,Calm,Calm,-,N/A,,Overcast,0,2013-01-09 11:15:00
6:35 AM,50.0,50.0,100,30.37,5.0,Calm,Calm,-,N/A,,Overcast,0,2013-01-09 11:35:00
6:55 AM,50.0,50.0,100,30.38,7.0,Calm,Calm,-,N/A,,Overcast,0,2013-01-09 11:55:00
7:15 AM,50.0,50.0,100,30.38,7.0,Calm,Calm,-,N/A,,Overcast,0,2013-01-09 12:15:00
7:35 AM,50.0,50.0,100,30.39,7.0,Calm,Calm,-,N/A,,Overcast,0,2013-01-09 12:35:00
8:15 AM,53.6,53.6,100,30.39,5.0,Calm,Calm,-,N/A,,Mostly Cloudy,0,2013-01-09 13:15:00
8:35 AM,53.6,53.6,100,30.40,7.0,Calm,Calm,-,N/A,,Mostly Cloudy,0,2013-01-09 13:35:00
8:55 AM,53.6,53.6,100,30.40,5.0,NNE,4.6,-,N/A,,Overcast,30,2013-01-09 13:55:00
9:15 AM,55.4,55.4,100,30.41,5.0,Calm,Calm,-,N/A,,Scattered Clouds,0,2013-01-09 14:15:00
9:35 AM,55.4,55.4,100,30.41,7.0,NNE,3.5,-,N/A,,Mostly Cloudy,30,2013-01-09 14:35:00
9:55 AM,59.0,55.4,88,30.40,7.0,Calm,Calm,-,N/A,,Overcast,0,2013-01-09 14:55:00
10:15 AM,60.8,55.4,82,30.40,7.0,NNE,4.6,-,N/A,,Mostly Cloudy,20,2013-01-09 15:15:00
10:35 AM,62.6,55.4,77,30.40,5.0,NNE,6.9,-,N/A,,Haze,20,2013-01-09 15:35:00
10:55 AM,64.4,55.4,73,30.39,7.0,ENE,4.6,-,N/A,,Scattered Clouds,60,2013-01-09 15:55:00
11:15 AM,64.4,55.4,73,30.39,7.0,Calm,Calm,-,N/A,,Scattered Clouds,0,2013-01-09 16:15:00
11:35 AM,66.2,55.4,68,30.38,7.0,East,3.5,-,N/A,,Overcast,80,2013-01-09 16:35:00
11:55 AM,69.8,55.4,60,30.38,7.0,Calm,Calm,-,N/A,,Overcast,0,2013-01-09 16:55:00
12:15 PM,69.8,53.6,56,30.36,7.0,NE,4.6,-,N/A,,Scattered Clouds,40,2013-01-09 17:15:00
12:55 PM,71.6,55.4,57,30.36,5.0,NNE,4.6,-,N/A,,Haze,20,2013-01-09 17:55:00
1:15 PM,73.4,55.4,53,30.35,7.0,Calm,Calm,-,N/A,,Clear,0,2013-01-09 18:15:00
1:35 PM,73.4,57.2,57,30.36,5.0,NNW,3.5,-,N/A,,Haze,340,2013-01-09 18:35:00
1:55 PM,73.4,57.2,57,30.35,3.0,Calm,Calm,-,N/A,,Haze,0,2013-01-09 18:55:00
2:15 PM,73.4,57.2,57,30.35,7.0,North,3.5,-,N/A,,Clear,10,2013-01-09 19:15:00
2:35 PM,71.6,57.2,60,30.35,7.0,North,3.5,-,N/A,,Clear,350,2013-01-09 19:35:00
2:55 PM,71.6,57.2,60,30.36,7.0,North,5.8,-,N/A,,Clear,350,2013-01-09 19:55:00
3:15 PM,71.6,57.2,60,30.36,5.0,North,5.8,-,N/A,,Haze,350,2013-01-09 20:15:00
3:35 PM,69.8,55.4,60,30.37,7.0,North,3.5,-,N/A,,Clear,360,2013-01-09 20:35:00
3:55 PM,69.8,55.4,60,30.37,5.0,Calm,Calm,-,N/A,,Haze,0,2013-01-09 20:55:00
4:15 PM,69.8,55.4,60,30.38,7.0,Calm,Calm,-,N/A,,Clear,0,2013-01-09 21:15:00
4:35 PM,68.0,55.4,64,30.38,10.0,Calm,Calm,-,N/A,,Clear,0,2013-01-09 21:35:00
4:55 PM,68.0,55.4,64,30.38,7.0,Calm,Calm,-,N/A,,Clear,0,2013-01-09 21:55:00
5:15 PM,64.4,55.4,73,30.38,7.0,Calm,Calm,-,N/A,,Clear,0,2013-01-09 22:15:00
5:35 PM,62.6,55.4,77,30.38,7.0,Calm,Calm,-,N/A,,Clear,0,2013-01-09 22:35:00
5:55 PM,60.8,55.4,82,30.37,7.0,Calm,Calm,-,N/A,,Clear,0,2013-01-09 22:55:00
6:15 PM,60.8,55.4,82,30.37,7.0,Calm,Calm,-,N/A,,Clear,0,2013-01-09 23:15:00
6:35 PM,60.8,55.4,82,30.38,7.0,Calm,Calm,-,N/A,,Clear,0,2013-01-09 23:35:00
6:55 PM,59.0,55.4,88,30.39,7.0,Calm,Calm,-,N/A,,Clear,0,2013-01-09 23:55:00
7:15 PM,59.0,59.0,100,30.39,7.0,Calm,Calm,-,N/A,,Clear,0,2013-01-10 00:15:00
7:35 PM,57.2,57.2,100,30.40,7.0,Calm,Calm,-,N/A,,Clear,0,2013-01-10 00:35:00
7:55 PM,55.4,55.4,100,30.40,7.0,Calm,Calm,-,N/A,,Clear,0,2013-01-10 00:55:00
8:15 PM,55.4,55.4,100,30.40,7.0,Calm,Calm,-,N/A,,Clear,0,2013-01-10 01:15:00
8:55 PM,55.4,55.4,100,30.40,7.0,Calm,Calm,-,N/A,,Clear,0,2013-01-10 01:55:00
9:35 PM,55.4,55.4,100,30.40,7.0,Calm,Calm,-,N/A,,Clear,0,2013-01-10 02:35:00
9:55 PM,55.4,55.4,100,30.39,7.0,Calm,Calm,-,N/A,,Clear,0,2013-01-10 02:55:00
10:15 PM,55.4,55.4,100,30.40,7.0,Calm,Calm,-,N/A,,Clear,0,2013-01-10 03:15:00
10:35 PM,53.6,53.6,100,30.40,7.0,Calm,Calm,-,N/A,,Clear,0,2013-01-10 03:35:00
11:15 PM,53.6,53.6,100,30.40,7.0,Calm,Calm,-,N/A,,Clear,0,2013-01-10 04:15:00
11:35 PM,53.6,53.6,100,30.40,7.0,Calm,Calm,-,N/A,,Clear,0,2013-01-10 04:35:00
11:55 PM,51.8,51.8,100,30.40,5.0,Calm,Calm,-,N/A,,Clear,0,2013-01-10 04:55:00